createdAt,value
2022-07-28T00:00:38.822Z,13.23
2022-07-28T00:03:41.414Z,13.20
2022-07-28T00:06:44.008Z,13.14
2022-07-28T00:09:46.643Z,13.14
2022-07-28T00:12:49.313Z,13.10
2022-07-28T00:15:53.360Z,13.02
2022-07-28T00:18:55.963Z,12.98
2022-07-28T00:21:58.552Z,12.97
2022-07-28T00:25:01.136Z,13.02
2022-07-28T00:28:03.708Z,12.94
2022-07-28T00:31:10.974Z,12.88
2022-07-28T00:34:15.029Z,12.86
2022-07-28T00:37:17.829Z,12.77
2022-07-28T00:40:20.494Z,12.90
2022-07-28T00:43:23.124Z,12.91
2022-07-28T00:46:27.094Z,12.79
2022-07-28T00:49:29.787Z,12.62
2022-07-28T00:52:34.001Z,12.69
2022-07-28T00:56:03.389Z,12.75
2022-07-28T00:58:59.215Z,12.66
2022-07-28T01:02:04.110Z,12.74
2022-07-28T01:05:07.460Z,12.63
2022-07-28T01:08:17.565Z,12.62
2022-07-28T01:11:30.748Z,12.65
2022-07-28T01:14:40.129Z,12.77
2022-07-28T01:17:53.544Z,12.59
2022-07-28T01:21:03.176Z,12.68
2022-07-28T01:24:22.746Z,12.63
2022-07-28T01:27:37.003Z,12.67
2022-07-28T01:30:42.912Z,12.67
2022-07-28T01:33:48.487Z,12.66
2022-07-28T01:36:55.983Z,12.56
2022-07-28T01:40:02.382Z,12.49
2022-07-28T01:43:08.784Z,12.48
2022-07-28T01:46:17.909Z,12.41
2022-07-28T01:49:22.364Z,12.48
2022-07-28T01:52:27.231Z,12.40
2022-07-28T01:55:30.697Z,12.30
2022-07-28T01:58:35.195Z,12.22
2022-07-28T02:01:44.554Z,12.38
2022-07-28T02:04:49.035Z,12.28
2022-07-28T02:07:54.245Z,12.28
2022-07-28T02:11:17.671Z,12.21
2022-07-28T02:14:23.110Z,12.17
2022-07-28T02:17:31.833Z,12.16
2022-07-28T02:20:34.966Z,12.05
2022-07-28T02:23:40.133Z,12.06
2022-07-28T02:26:47.402Z,12.06
2022-07-28T02:29:52.137Z,12.14
2022-07-28T02:32:58.028Z,12.07
2022-07-28T02:36:06.303Z,12.07
2022-07-28T02:39:13.054Z,12.08
2022-07-28T02:42:19.531Z,12.09
2022-07-28T02:45:26.314Z,12.09
2022-07-28T02:48:32.465Z,12.16
2022-07-28T02:51:36.178Z,12.15
2022-07-28T02:54:40.793Z,12.09
2022-07-28T02:57:45.135Z,12.03
2022-07-28T03:00:48.552Z,11.96
2022-07-28T03:03:55.408Z,11.90
2022-07-28T03:06:58.246Z,12.10
2022-07-28T03:10:01.489Z,12.12
2022-07-28T03:13:06.791Z,12.07
2022-07-28T03:16:09.957Z,12.09
2022-07-28T03:19:13.928Z,12.08
2022-07-28T03:22:16.693Z,12.07
2022-07-28T03:25:24.459Z,12.18
2022-07-28T03:28:29.359Z,12.12
2022-07-28T03:31:34.949Z,12.12
2022-07-28T03:34:39.152Z,12.34
2022-07-28T03:37:47.803Z,12.42
2022-07-28T03:40:53.947Z,12.58
2022-07-28T03:43:57.821Z,12.58
2022-07-28T03:47:00.540Z,12.63
2022-07-28T03:50:04.991Z,12.62
2022-07-28T03:53:20.027Z,12.65
2022-07-28T03:56:23.113Z,12.68
2022-07-28T03:59:25.756Z,12.91
2022-07-28T04:02:28.531Z,12.94
2022-07-28T04:05:32.502Z,12.92
2022-07-28T04:08:35.505Z,13.06
2022-07-28T04:11:38.044Z,13.16
2022-07-28T04:14:40.759Z,13.34
2022-07-28T04:17:43.820Z,13.50
2022-07-28T04:20:47.734Z,13.28
2022-07-28T04:23:50.376Z,13.34
2022-07-28T04:26:53.027Z,13.44
2022-07-28T04:29:55.783Z,13.59
2022-07-28T04:32:58.564Z,13.57
2022-07-28T04:36:02.569Z,13.80
2022-07-28T04:39:05.391Z,13.67
2022-07-28T04:42:08.251Z,13.78
2022-07-28T04:45:12.687Z,13.97
2022-07-28T04:48:15.259Z,14.14
2022-07-28T04:51:23.016Z,14.20
2022-07-28T04:54:26.865Z,14.14
2022-07-28T04:57:30.053Z,14.23
2022-07-28T05:00:33.197Z,14.33
2022-07-28T05:03:36.453Z,14.40
2022-07-28T05:06:40.497Z,14.55
2022-07-28T05:09:43.091Z,14.61
2022-07-28T05:12:47.178Z,14.64
2022-07-28T05:15:49.763Z,14.80
2022-07-28T05:18:52.377Z,14.88
2022-07-28T05:21:56.381Z,15.00
2022-07-28T05:24:58.985Z,15.00
2022-07-28T05:28:01.530Z,14.87
2022-07-28T05:31:04.301Z,14.93
2022-07-28T05:34:07.080Z,15.02
2022-07-28T05:37:11.003Z,15.14
2022-07-28T05:40:15.854Z,15.31
2022-07-28T05:43:18.642Z,15.44
2022-07-28T05:46:21.376Z,15.51
2022-07-28T05:49:24.309Z,15.46
2022-07-28T05:52:28.796Z,15.39
2022-07-28T05:55:31.811Z,15.50
2022-07-28T05:58:34.372Z,15.66
2022-07-28T06:01:38.187Z,15.57
2022-07-28T06:04:40.873Z,15.65
2022-07-28T06:07:45.079Z,15.60
2022-07-28T06:11:09.151Z,15.71
2022-07-28T06:14:11.974Z,15.76
2022-07-28T06:17:15.945Z,15.93
2022-07-28T06:20:18.966Z,15.33
2022-07-28T06:23:23.692Z,15.89
2022-07-28T06:26:26.286Z,16.19
2022-07-28T06:29:28.969Z,16.26
2022-07-28T06:32:31.547Z,16.35
2022-07-28T06:35:47.671Z,16.38
2022-07-28T06:38:55.163Z,16.36
2022-07-28T06:41:57.751Z,16.42
2022-07-28T06:45:00.603Z,16.65
2022-07-28T06:48:03.210Z,16.58
2022-07-28T06:51:06.161Z,16.66
2022-07-28T06:54:11.511Z,16.83
2022-07-28T06:57:14.707Z,16.81
2022-07-28T07:00:19.787Z,17.07
2022-07-28T07:03:22.397Z,16.92
2022-07-28T07:06:25.022Z,16.16
2022-07-28T07:09:29.102Z,16.73
2022-07-28T07:12:33.681Z,16.83
2022-07-28T07:15:36.253Z,16.94
2022-07-28T07:18:38.836Z,17.15
2022-07-28T07:21:41.450Z,17.34
2022-07-28T07:24:45.369Z,17.46
2022-07-28T07:27:49.034Z,17.44
2022-07-28T07:30:51.705Z,17.73
2022-07-28T07:33:54.246Z,17.68
2022-07-28T07:36:56.816Z,17.50
2022-07-28T07:40:01.170Z,17.84
2022-07-28T07:43:03.823Z,18.06
2022-07-28T07:46:08.166Z,18.21
2022-07-28T07:49:10.989Z,18.27
2022-07-28T07:52:13.818Z,18.27
2022-07-28T07:55:18.177Z,18.26
2022-07-28T07:58:20.797Z,18.08
2022-07-28T08:01:23.443Z,18.57
2022-07-28T08:04:26.592Z,18.19
2022-07-28T08:07:31.383Z,18.24
2022-07-28T08:10:35.423Z,18.51
2022-07-28T08:13:37.973Z,18.76
2022-07-28T08:16:40.593Z,18.98
2022-07-28T08:19:43.370Z,19.23
2022-07-28T08:22:49.512Z,19.14
2022-07-28T08:25:53.496Z,19.24
2022-07-28T08:28:56.436Z,19.02
2022-07-28T08:31:59.234Z,18.89
2022-07-28T08:35:30.263Z,18.74
2022-07-28T08:38:24.415Z,18.65
2022-07-28T08:41:33.954Z,18.65
2022-07-28T08:44:48.429Z,18.79
2022-07-28T08:48:07.887Z,18.56
2022-07-28T08:51:13.355Z,18.54
2022-07-28T08:54:21.243Z,18.50
2022-07-28T08:57:35.781Z,18.39
2022-07-28T09:00:38.492Z,18.44
2022-07-28T09:03:42.519Z,18.44
2022-07-28T09:06:45.264Z,18.64
2022-07-28T09:09:50.327Z,18.71
2022-07-28T09:12:55.275Z,18.47
2022-07-28T09:16:00.122Z,18.71
2022-07-28T09:19:02.788Z,18.98
2022-07-28T09:22:05.859Z,19.09
2022-07-28T09:25:19.551Z,19.05
2022-07-28T09:28:24.540Z,18.71
2022-07-28T09:31:29.335Z,18.68
2022-07-28T09:34:41.429Z,18.74
2022-07-28T09:37:44.139Z,18.78
2022-07-28T09:40:59.257Z,19.00
2022-07-28T09:44:03.200Z,18.88
2022-07-28T09:47:22.889Z,18.84
2022-07-28T09:50:30.130Z,18.86
2022-07-28T09:53:32.693Z,19.08
2022-07-28T09:56:35.660Z,19.13
2022-07-28T09:59:43.768Z,19.22
2022-07-28T10:02:51.500Z,19.08
2022-07-28T10:05:54.834Z,19.12
2022-07-28T10:08:59.339Z,18.71
2022-07-28T10:12:18.527Z,18.96
2022-07-28T10:15:45.540Z,18.73
2022-07-28T10:18:53.930Z,18.98
2022-07-28T10:21:58.446Z,19.23
2022-07-28T10:25:03.227Z,19.39
2022-07-28T10:28:06.874Z,19.42
2022-07-28T10:31:15.396Z,19.44
2022-07-28T10:34:24.782Z,19.92
2022-07-28T10:37:29.411Z,19.94
2022-07-28T10:40:36.728Z,20.32
2022-07-28T10:43:42.938Z,20.54
2022-07-28T10:46:50.807Z,20.78
2022-07-28T10:49:53.578Z,21.97
2022-07-28T10:52:59.440Z,21.79
2022-07-28T10:56:08.217Z,21.15
2022-07-28T10:59:23.107Z,20.97
2022-07-28T11:02:47.893Z,20.52
2022-07-28T11:05:51.542Z,20.43
2022-07-28T11:08:54.688Z,20.19
2022-07-28T11:11:57.864Z,20.09
2022-07-28T11:15:15.802Z,20.20
2022-07-28T11:18:23.685Z,20.23
2022-07-28T11:21:26.294Z,20.20
2022-07-28T11:25:20.565Z,19.86
2022-07-28T11:28:24.179Z,19.81
2022-07-28T11:31:56.493Z,19.82
2022-07-28T11:35:09.452Z,19.75
2022-07-28T11:38:14.393Z,19.73
2022-07-28T11:41:31.031Z,19.78
2022-07-28T11:44:34.333Z,19.74
2022-07-28T11:47:37.528Z,19.96
2022-07-28T11:50:42.152Z,20.01
2022-07-28T11:53:46.767Z,19.97
2022-07-28T11:56:58.166Z,19.91
2022-07-28T12:00:03.456Z,20.05
2022-07-28T12:03:06.182Z,20.11
2022-07-28T12:06:10.653Z,20.11
2022-07-28T12:09:14.153Z,19.98
2022-07-28T12:12:16.802Z,20.07
2022-07-28T12:15:20.264Z,19.96
2022-07-28T12:18:24.804Z,20.03
2022-07-28T12:21:46.172Z,20.13
2022-07-28T12:24:57.754Z,20.28
2022-07-28T12:28:14.175Z,20.26
2022-07-28T12:31:17.062Z,20.48
2022-07-28T12:34:20.085Z,20.77
2022-07-28T12:37:24.531Z,22.32
2022-07-28T12:40:30.343Z,23.46
2022-07-28T12:43:34.213Z,23.08
2022-07-28T12:46:36.903Z,22.35
2022-07-28T12:49:42.750Z,22.27
2022-07-28T12:53:03.434Z,22.00
2022-07-28T12:56:06.372Z,21.62
2022-07-28T12:59:10.647Z,21.32
2022-07-28T13:02:13.364Z,21.51
2022-07-28T13:05:30.176Z,21.31
2022-07-28T13:08:44.338Z,21.21
2022-07-28T13:11:48.080Z,21.26
2022-07-28T13:14:52.641Z,21.24
2022-07-28T13:17:56.981Z,21.27
2022-07-28T13:20:59.528Z,21.71
2022-07-28T13:24:03.583Z,21.64
2022-07-28T13:27:06.930Z,21.33
2022-07-28T13:30:11.252Z,21.08
2022-07-28T13:33:14.206Z,20.79
2022-07-28T13:36:16.953Z,21.01
2022-07-28T13:39:21.014Z,21.07
2022-07-28T13:42:23.922Z,21.14
2022-07-28T13:45:30.330Z,21.49
2022-07-28T13:48:35.704Z,22.32
2022-07-28T13:51:38.363Z,22.82
2022-07-28T13:54:42.331Z,23.46
2022-07-28T13:57:45.258Z,23.45
2022-07-28T14:00:57.462Z,23.26
2022-07-28T14:04:01.070Z,23.54
2022-07-28T14:07:03.725Z,24.00
2022-07-28T14:10:08.935Z,24.25
2022-07-28T14:13:11.537Z,24.14
2022-07-28T14:16:14.688Z,23.90
2022-07-28T14:19:23.565Z,23.38
2022-07-28T14:22:40.317Z,22.85
2022-07-28T16:25:21.252Z,20.23
2022-07-28T16:28:23.835Z,20.18
2022-07-28T16:31:27.845Z,20.39
2022-07-28T16:34:30.511Z,20.43
2022-07-28T16:37:33.283Z,20.37
2022-07-28T16:40:37.246Z,20.61
2022-07-28T16:43:44.610Z,20.59
2022-07-28T16:46:47.723Z,20.76
2022-07-28T16:49:50.439Z,20.72
2022-07-28T16:52:54.103Z,20.62
2022-07-28T16:55:58.026Z,20.61
2022-07-28T16:59:01.099Z,20.52
2022-07-28T17:02:03.820Z,20.58
2022-07-28T17:05:07.487Z,20.65
2022-07-28T17:08:10.253Z,20.56
2022-07-28T17:11:14.162Z,20.66
2022-07-28T17:14:18.939Z,20.44
2022-07-28T17:17:21.759Z,20.53
2022-07-28T17:20:25.398Z,20.47
2022-07-28T17:23:28.005Z,20.43
2022-07-28T17:29:56.989Z,20.56
2022-07-28T17:33:06.097Z,20.34
2022-07-28T17:36:10.832Z,20.31
2022-07-28T17:39:13.751Z,20.31
2022-07-28T17:42:17.681Z,20.28
2022-07-28T17:45:20.473Z,20.46
2022-07-28T17:48:23.375Z,20.28
2022-07-28T17:51:26.626Z,20.43
2022-07-28T17:54:49.188Z,20.45
2022-07-28T17:57:53.622Z,20.32
2022-07-28T18:00:58.017Z,20.37
2022-07-28T18:04:11.940Z,20.35
2022-07-28T18:07:14.962Z,20.30
2022-07-28T18:10:18.664Z,20.18
2022-07-28T18:13:29.524Z,20.32
2022-07-28T18:16:32.130Z,20.26
2022-07-28T18:19:34.731Z,20.10
2022-07-28T18:22:37.271Z,20.11
2022-07-28T18:25:44.884Z,20.10
2022-07-28T18:28:49.339Z,20.05
2022-07-28T18:31:52.281Z,19.97
2022-07-28T18:34:55.080Z,19.87
2022-07-28T18:37:57.839Z,19.81
2022-07-28T18:41:00.916Z,19.76
2022-07-28T18:44:05.039Z,19.52
2022-07-28T18:47:07.612Z,19.47
2022-07-28T18:50:27.796Z,19.54
2022-07-28T18:53:33.322Z,19.43
2022-07-28T18:56:35.887Z,19.24
2022-07-28T18:59:44.579Z,18.98
2022-07-28T19:02:49.241Z,19.01
2022-07-28T19:05:53.673Z,18.83
2022-07-28T19:08:56.799Z,18.88
2022-07-28T19:12:00.595Z,18.98
2022-07-28T19:15:05.375Z,18.99
2022-07-28T19:18:10.575Z,18.78
2022-07-28T19:21:14.440Z,18.69
2022-07-28T19:24:17.829Z,18.56
2022-07-28T19:27:20.807Z,18.57
2022-07-28T19:30:24.850Z,18.31
2022-07-28T19:33:27.593Z,18.33
2022-07-28T19:36:30.769Z,18.37
2022-07-28T19:39:34.773Z,18.13
2022-07-28T19:42:37.329Z,18.15
2022-07-28T19:45:41.425Z,18.17
2022-07-28T19:48:44.103Z,18.02
2022-07-28T19:51:46.714Z,17.96
2022-07-28T19:54:51.303Z,17.94
2022-07-28T19:57:54.961Z,17.80
2022-07-28T20:00:59.704Z,17.67
2022-07-28T20:04:05.166Z,17.57
2022-07-28T20:07:08.017Z,17.62
2022-07-28T20:10:10.957Z,17.54
2022-07-28T20:13:13.566Z,17.54
2022-07-28T20:16:17.890Z,17.50
2022-07-28T20:19:20.540Z,17.40
2022-07-28T20:22:23.263Z,17.25
2022-07-28T20:25:25.960Z,17.19
2022-07-28T20:28:28.696Z,17.14
2022-07-28T20:31:33.087Z,17.08
2022-07-28T20:34:35.702Z,17.04
2022-07-28T20:37:41.254Z,16.97
2022-07-28T20:40:43.837Z,16.92
2022-07-28T20:43:59.690Z,16.85
2022-07-28T20:47:10.368Z,16.82
2022-07-28T20:50:14.554Z,16.70
2022-07-28T20:53:17.139Z,16.77
2022-07-28T20:56:19.733Z,16.77
2022-07-28T20:59:27.475Z,16.73
2022-07-28T21:02:32.069Z,16.68
2022-07-28T21:05:35.739Z,16.67
2022-07-28T21:08:38.758Z,16.45
2022-07-28T21:11:42.018Z,16.61
2022-07-28T21:14:44.615Z,16.70
2022-07-28T21:17:48.867Z,16.58
2022-07-28T21:20:51.457Z,16.58
2022-07-28T21:23:54.365Z,16.56
2022-07-28T21:26:56.957Z,16.52
2022-07-28T21:33:01.412Z,16.48
2022-07-28T21:36:04.633Z,16.47
2022-07-28T21:39:07.242Z,16.48
2022-07-28T21:42:09.919Z,16.40
2022-07-28T21:45:12.619Z,16.37
2022-07-28T21:48:19.126Z,16.37
2022-07-28T21:51:22.386Z,16.27
2022-07-28T21:54:25.063Z,16.34
2022-07-28T21:57:27.741Z,16.35
2022-07-28T22:00:30.624Z,16.23
2022-07-28T22:03:34.750Z,16.12
2022-07-28T22:06:37.383Z,16.06
2022-07-28T22:09:39.983Z,15.98
2022-07-28T22:12:42.650Z,15.98
2022-07-28T22:15:45.423Z,15.80
2022-07-28T22:18:49.401Z,15.95
2022-07-28T22:21:51.996Z,15.88
2022-07-28T22:24:56.820Z,15.90
2022-07-28T22:27:59.407Z,15.86
2022-07-28T22:31:08.826Z,15.77
2022-07-28T22:34:14.347Z,15.79
2022-07-28T22:37:17.203Z,15.73
2022-07-28T22:40:20.169Z,15.62
2022-07-28T22:43:22.725Z,15.72
2022-07-28T22:46:25.433Z,15.66
2022-07-28T22:49:29.668Z,15.64
2022-07-28T22:52:32.713Z,15.60
2022-07-28T22:55:35.307Z,15.51
2022-07-28T22:58:37.885Z,15.54
2022-07-28T23:01:40.477Z,15.40
2022-07-28T23:04:49.592Z,15.37
2022-07-28T23:07:57.255Z,15.37
2022-07-28T23:11:01.259Z,15.36
2022-07-28T23:14:03.890Z,15.32
2022-07-28T23:17:06.462Z,15.33
2022-07-28T23:20:11.658Z,15.25
2022-07-28T23:23:18.184Z,15.27
2022-07-28T23:26:20.774Z,15.18
2022-07-28T23:29:23.493Z,15.22
2022-07-28T23:32:26.111Z,15.28
2022-07-28T23:35:30.105Z,15.22
2022-07-28T23:38:32.717Z,15.15
2022-07-28T23:41:35.304Z,15.10
2022-07-28T23:44:37.914Z,15.05
2022-07-28T23:47:40.540Z,15.07
2022-07-28T23:50:44.502Z,15.08
2022-07-28T23:53:47.096Z,15.08
2022-07-28T23:56:55.041Z,15.20
2022-07-28T23:59:57.726Z,14.93
